createdAt,value
2019-02-21T00:00:46.837Z,8.60
2019-02-21T00:02:26.990Z,7.40
2019-02-21T00:04:02.903Z,9.40
2019-02-21T00:05:49.330Z,4.00
2019-02-21T00:07:28.842Z,8.80
2019-02-21T00:09:08.358Z,8.80
2019-02-21T00:10:46.681Z,7.60
2019-02-21T00:12:23.486Z,7.00
2019-02-21T00:14:03.876Z,12.00
2019-02-21T00:15:39.645Z,7.40
2019-02-21T00:17:15.883Z,13.00
2019-02-21T00:18:51.959Z,9.20
2019-02-21T00:20:28.383Z,11.20
2019-02-21T00:22:09.264Z,9.60
2019-02-21T00:23:47.420Z,5.40
2019-02-21T00:25:22.844Z,9.60
2019-02-21T00:27:00.371Z,11.60
2019-02-21T00:28:37.272Z,12.40
2019-02-21T00:30:17.616Z,13.20
2019-02-21T00:31:54.317Z,10.80
2019-02-21T00:33:29.862Z,12.40
2019-02-21T00:35:05.320Z,10.80
2019-02-21T00:36:47.113Z,9.60
2019-02-21T00:38:22.885Z,14.60
2019-02-21T00:39:58.893Z,10.80
2019-02-21T00:41:35.470Z,7.00
2019-02-21T00:43:15.102Z,10.80
2019-02-21T00:44:50.998Z,13.40
2019-02-21T00:46:27.585Z,9.00
2019-02-21T00:48:04.434Z,14.20
2019-02-21T00:49:48.561Z,12.00
2019-02-21T00:51:26.260Z,10.00
2019-02-21T00:53:06.691Z,11.20
2019-02-21T00:54:42.403Z,10.80
2019-02-21T00:56:18.219Z,11.20
2019-02-21T00:57:53.984Z,13.40
2019-02-21T00:59:29.769Z,9.80
2019-02-21T01:01:06.509Z,12.00
2019-02-21T01:02:44.487Z,7.00
2019-02-21T01:04:29.212Z,13.00
2019-02-21T01:06:05.389Z,12.40
2019-02-21T01:07:40.984Z,12.80
2019-02-21T01:09:17.076Z,14.20
2019-02-21T01:10:55.228Z,13.40
2019-02-21T01:12:34.298Z,10.40
2019-02-21T01:14:09.938Z,12.60
2019-02-21T01:15:45.501Z,14.40
2019-02-21T01:17:21.777Z,14.60
2019-02-21T01:18:58.293Z,14.60
2019-02-21T01:20:34.557Z,9.80
2019-02-21T01:22:10.058Z,12.60
2019-02-21T01:23:48.736Z,4.00
2019-02-21T01:25:26.793Z,15.60
2019-02-21T01:27:04.178Z,14.20
2019-02-21T01:28:41.621Z,12.00
2019-02-21T01:30:17.937Z,12.40
2019-02-21T01:31:54.419Z,10.80
2019-02-21T01:33:30.075Z,9.60
2019-02-21T01:35:05.986Z,13.00
2019-02-21T01:36:41.798Z,12.40
2019-02-21T01:38:18.226Z,14.80
2019-02-21T01:39:53.763Z,17.20
2019-02-21T01:41:29.718Z,11.20
2019-02-21T01:43:05.489Z,12.00
2019-02-21T01:44:41.415Z,14.00
2019-02-21T01:46:18.585Z,13.40
2019-02-21T01:47:57.184Z,13.80
2019-02-21T01:49:32.728Z,14.00
2019-02-21T01:51:08.278Z,14.40
2019-02-21T01:52:44.273Z,10.00
2019-02-21T01:54:25.256Z,7.60
2019-02-21T01:56:00.620Z,6.80
2019-02-21T01:57:36.217Z,9.00
2019-02-21T01:59:11.990Z,6.80
2019-02-21T02:00:47.439Z,16.80
2019-02-21T02:02:23.257Z,12.80
2019-02-21T02:03:58.784Z,12.00
2019-02-21T02:05:34.254Z,11.20
2019-02-21T02:07:10.069Z,13.20
2019-02-21T02:08:45.808Z,14.60
2019-02-21T02:10:21.107Z,12.60
2019-02-21T02:11:57.320Z,7.80
2019-02-21T02:13:33.186Z,9.00
2019-02-21T02:15:10.003Z,9.00
2019-02-21T02:17:04.712Z,15.40
2019-02-21T02:18:40.928Z,16.40
2019-02-21T02:20:16.237Z,20.00
2019-02-21T02:21:52.078Z,16.00
2019-02-21T02:23:27.504Z,17.60
2019-02-21T02:25:03.286Z,21.20
2019-02-21T02:26:40.676Z,21.20
2019-02-21T02:28:17.028Z,28.60
2019-02-21T02:29:52.378Z,20.40
2019-02-21T02:31:27.950Z,23.00
2019-02-21T02:33:03.987Z,23.20
2019-02-21T02:34:39.500Z,22.00
2019-02-21T02:36:16.939Z,21.20
2019-02-21T02:37:52.686Z,22.00
2019-02-21T02:39:28.262Z,24.60
2019-02-21T02:41:06.010Z,18.20
2019-02-21T02:42:48.226Z,20.60
2019-02-21T02:44:25.415Z,16.40
2019-02-21T02:46:01.453Z,18.40
2019-02-21T02:47:37.246Z,22.00
2019-02-21T02:49:12.468Z,19.80
2019-02-21T02:50:51.499Z,16.80
2019-02-21T02:52:26.759Z,22.20
2019-02-21T02:54:02.070Z,22.20
2019-02-21T02:55:37.317Z,25.00
2019-02-21T02:57:14.582Z,26.60
2019-02-21T02:58:55.724Z,21.60
2019-02-21T03:00:35.008Z,21.20
2019-02-21T03:02:16.490Z,25.60
2019-02-21T03:03:54.194Z,25.80
2019-02-21T03:05:29.970Z,22.20
2019-02-21T03:07:05.198Z,23.20
2019-02-21T03:08:42.113Z,23.80
2019-02-21T03:10:18.468Z,22.80
2019-02-21T03:11:53.668Z,13.00
2019-02-21T03:13:29.436Z,20.40
2019-02-21T03:15:06.506Z,21.40
2019-02-21T03:16:42.132Z,14.20
2019-02-21T03:18:17.823Z,20.60
2019-02-21T03:19:53.388Z,22.20
2019-02-21T03:21:29.868Z,19.60
2019-02-21T03:23:05.532Z,16.40
2019-02-21T03:24:40.808Z,12.60
2019-02-21T03:26:16.404Z,8.40
2019-02-21T03:27:51.814Z,13.60
2019-02-21T03:29:28.729Z,13.80
2019-02-21T03:31:04.601Z,15.40
2019-02-21T03:32:40.363Z,11.80
2019-02-21T03:34:16.572Z,12.40
2019-02-21T03:35:51.842Z,10.40
2019-02-21T03:37:27.271Z,11.60
2019-02-21T03:39:03.510Z,3.40
2019-02-21T03:40:39.168Z,6.20
2019-02-21T03:42:14.404Z,12.60
2019-02-21T03:43:51.201Z,13.80
2019-02-21T03:45:26.771Z,13.00
2019-02-21T03:47:05.986Z,15.00
2019-02-21T03:48:41.851Z,10.20
2019-02-21T03:50:17.463Z,15.80
2019-02-21T03:51:53.099Z,9.80
2019-02-21T03:53:31.786Z,10.00
2019-02-21T03:55:08.059Z,13.40
2019-02-21T03:56:45.026Z,6.80
2019-02-21T03:58:20.379Z,11.80
2019-02-21T03:59:57.520Z,13.00
2019-02-21T04:01:33.096Z,13.00
2019-02-21T04:03:08.494Z,11.20
2019-02-21T04:04:45.819Z,13.00
2019-02-21T04:06:21.237Z,12.40
2019-02-21T04:07:56.937Z,14.40
2019-02-21T04:09:33.632Z,15.20
2019-02-21T04:11:12.558Z,15.40
2019-02-21T04:12:50.167Z,13.20
2019-02-21T04:14:30.618Z,15.80
2019-02-21T04:16:08.399Z,10.80
2019-02-21T04:17:44.292Z,13.80
2019-02-21T04:19:19.893Z,12.60
2019-02-21T04:20:56.076Z,10.40
2019-02-21T04:22:31.443Z,12.20
2019-02-21T04:24:08.329Z,15.00
2019-02-21T04:25:44.297Z,14.20
2019-02-21T04:27:22.707Z,14.20
2019-02-21T04:28:58.753Z,12.00
2019-02-21T04:30:37.964Z,17.20
2019-02-21T04:32:16.902Z,14.40
2019-02-21T04:33:52.038Z,11.40
2019-02-21T04:35:27.977Z,12.80
2019-02-21T04:37:03.175Z,16.20
2019-02-21T04:38:41.554Z,15.00
2019-02-21T04:40:16.884Z,16.00
2019-02-21T04:41:52.253Z,15.60
2019-02-21T04:43:27.696Z,18.80
2019-02-21T04:45:09.177Z,18.60
2019-02-21T04:46:45.134Z,21.60
2019-02-21T04:48:20.533Z,17.60
2019-02-21T04:49:56.204Z,19.00
2019-02-21T04:51:31.697Z,19.60
2019-02-21T04:53:07.111Z,15.40
2019-02-21T04:54:42.347Z,17.40
2019-02-21T04:56:28.908Z,21.20
2019-02-21T04:58:06.892Z,13.20
2019-02-21T04:59:42.643Z,21.00
2019-02-21T05:01:18.092Z,12.60
2019-02-21T05:02:53.601Z,22.00
2019-02-21T05:04:29.870Z,18.40
2019-02-21T05:06:07.884Z,16.60
2019-02-21T05:07:43.306Z,27.00
2019-02-21T05:09:18.659Z,22.40
2019-02-21T05:10:54.040Z,18.60
2019-02-21T05:12:29.285Z,18.80
2019-02-21T05:14:04.534Z,20.20
2019-02-21T05:15:40.047Z,18.60
2019-02-21T05:17:15.934Z,17.60
2019-02-21T05:18:51.489Z,16.00
2019-02-21T05:20:27.110Z,21.60
2019-02-21T05:22:02.522Z,18.80
2019-02-21T05:23:38.350Z,18.00
2019-02-21T05:25:14.168Z,14.80
2019-02-21T05:26:53.268Z,19.20
2019-02-21T05:28:33.214Z,13.00
2019-02-21T05:30:16.519Z,16.40
2019-02-21T05:32:07.697Z,15.00
2019-02-21T05:33:53.968Z,15.60
2019-02-21T05:36:00.434Z,12.80
2019-02-21T05:38:00.535Z,18.40
2019-02-21T05:40:04.278Z,15.80
2019-02-21T05:42:14.347Z,15.60
2019-02-21T05:44:07.915Z,11.20
2019-02-21T05:46:00.447Z,13.40
2019-02-21T05:47:54.732Z,14.60
2019-02-21T05:49:51.944Z,17.40
2019-02-21T05:51:41.244Z,11.60
2019-02-21T05:53:32.958Z,11.40
2019-02-21T05:55:36.932Z,16.40
2019-02-21T05:57:25.729Z,21.20
2019-02-21T05:59:24.153Z,15.80
2019-02-21T06:01:24.044Z,13.20
2019-02-21T06:03:36.080Z,17.20
2019-02-21T06:05:27.247Z,13.40
2019-02-21T06:07:37.480Z,18.80
2019-02-21T06:09:31.522Z,19.20
2019-02-21T06:11:37.491Z,18.40
2019-02-21T06:13:45.759Z,16.40
2019-02-21T06:15:40.000Z,20.60
2019-02-21T06:17:39.468Z,22.80
2019-02-21T06:19:34.452Z,11.80
2019-02-21T06:21:34.564Z,22.40
2019-02-21T06:23:27.178Z,26.00
2019-02-21T06:25:14.218Z,23.00
2019-02-21T06:27:12.486Z,29.80
2019-02-21T06:29:28.559Z,15.40
2019-02-21T06:31:07.457Z,15.20
2019-02-21T06:32:44.590Z,9.60
2019-02-21T06:34:20.076Z,14.60
2019-02-21T06:35:55.549Z,16.40
2019-02-21T06:37:30.706Z,17.60
2019-02-21T06:39:08.784Z,20.60
2019-02-21T06:41:00.063Z,10.80
2019-02-21T06:42:45.751Z,14.60
2019-02-21T06:44:23.591Z,19.80
2019-02-21T06:46:03.361Z,22.60
2019-02-21T06:47:38.578Z,59.20
2019-02-21T06:49:15.192Z,28.40
2019-02-21T06:50:51.104Z,12.00
2019-02-21T06:52:26.530Z,17.80
2019-02-21T06:54:04.614Z,15.80
2019-02-21T06:55:45.401Z,20.60
2019-02-21T06:57:25.477Z,14.60
2019-02-21T06:59:01.222Z,22.40
2019-02-21T07:00:50.765Z,35.20
2019-02-21T07:02:28.014Z,38.20
2019-02-21T07:04:03.639Z,27.00
2019-02-21T07:05:39.342Z,40.80
2019-02-21T07:07:16.870Z,36.20
2019-02-21T07:10:33.945Z,58.80
2019-02-21T07:12:28.234Z,33.40
2019-02-21T07:14:05.785Z,22.80
2019-02-21T07:15:41.224Z,15.20
2019-02-21T07:17:19.888Z,8.20
2019-02-21T07:19:00.040Z,20.80
2019-02-21T07:20:43.987Z,15.00
2019-02-21T07:22:22.342Z,13.00
2019-02-21T07:24:00.846Z,9.20
2019-02-21T07:25:44.679Z,18.20
2019-02-21T07:27:25.286Z,18.60
2019-02-21T07:29:01.198Z,13.80
2019-02-21T07:30:36.934Z,14.20
2019-02-21T07:32:13.211Z,19.00
2019-02-21T07:33:50.278Z,15.40
2019-02-21T07:35:26.517Z,16.20
2019-02-21T07:37:18.197Z,18.00
2019-02-21T07:38:45.745Z,17.40
2019-02-21T07:40:21.209Z,12.20
2019-02-21T07:41:59.368Z,16.00
2019-02-21T07:43:36.884Z,15.00
2019-02-21T07:45:13.609Z,9.00
2019-02-21T07:46:50.101Z,14.20
2019-02-21T07:48:29.941Z,15.60
2019-02-21T07:50:07.383Z,13.00
2019-02-21T07:51:42.562Z,13.80
2019-02-21T07:53:18.811Z,14.60
2019-02-21T07:55:02.107Z,16.00
2019-02-21T07:56:41.991Z,18.20
2019-02-21T07:58:13.861Z,15.20
2019-02-21T07:59:54.033Z,9.20
2019-02-21T08:01:30.174Z,11.60
2019-02-21T08:03:05.681Z,14.60
2019-02-21T08:04:45.247Z,17.20
2019-02-21T08:06:20.836Z,18.00
2019-02-21T08:07:59.216Z,20.60
2019-02-21T08:09:36.159Z,19.80
2019-02-21T08:11:14.480Z,32.00
2019-02-21T08:12:55.290Z,28.60
2019-02-21T08:14:32.670Z,19.00
2019-02-21T08:16:12.526Z,16.00
2019-02-21T08:17:46.883Z,24.60
2019-02-21T08:19:24.772Z,29.00
2019-02-21T08:21:01.012Z,29.00
2019-02-21T08:22:37.152Z,20.60
2019-02-21T08:24:12.732Z,16.80
2019-02-21T08:25:52.095Z,18.00
2019-02-21T08:27:35.285Z,15.00
2019-02-21T08:29:20.662Z,19.80
2019-02-21T08:31:00.490Z,14.20
2019-02-21T08:32:54.549Z,14.60
2019-02-21T08:34:35.443Z,16.80
2019-02-21T08:36:14.813Z,17.60
2019-02-21T08:37:57.335Z,20.40
2019-02-21T08:39:43.768Z,16.80
2019-02-21T08:41:28.170Z,18.40
2019-02-21T08:43:15.735Z,17.20
2019-02-21T08:44:56.057Z,14.60
2019-02-21T08:46:40.317Z,14.20
2019-02-21T08:48:21.400Z,16.80
2019-02-21T08:49:59.857Z,17.00
2019-02-21T08:51:40.471Z,17.20
2019-02-21T08:53:19.853Z,16.00
2019-02-21T08:55:00.485Z,15.80
2019-02-21T08:56:36.335Z,9.20
2019-02-21T08:58:11.765Z,19.00
2019-02-21T08:59:48.225Z,18.80
2019-02-21T09:01:28.318Z,15.60
2019-02-21T09:03:03.988Z,20.80
2019-02-21T09:04:40.168Z,19.20
2019-02-21T09:06:30.053Z,18.40
2019-02-21T09:08:18.206Z,18.40
2019-02-21T09:10:11.410Z,18.40
2019-02-21T09:12:19.496Z,15.20
2019-02-21T09:14:25.352Z,13.00
2019-02-21T09:16:03.142Z,18.00
2019-02-21T09:17:48.324Z,21.00
2019-02-21T09:20:08.778Z,12.00
2019-02-21T09:22:00.717Z,23.60
2019-02-21T09:23:48.790Z,21.00
2019-02-21T09:25:34.788Z,13.40
2019-02-21T09:27:35.529Z,13.20
2019-02-21T09:29:53.506Z,13.60
2019-02-21T09:32:22.391Z,16.00
2019-02-21T09:34:20.881Z,14.20
2019-02-21T09:38:24.878Z,21.00
2019-02-21T09:40:05.787Z,18.60
2019-02-21T09:41:43.368Z,17.20
2019-02-21T09:43:22.655Z,10.40
2019-02-21T09:45:03.961Z,13.00
2019-02-21T09:46:43.099Z,20.60
2019-02-21T09:48:22.137Z,17.80
2019-02-21T09:49:58.522Z,19.60
2019-02-21T09:51:36.664Z,21.20
2019-02-21T09:53:21.093Z,19.80
2019-02-21T09:55:04.768Z,23.20
2019-02-21T09:56:52.742Z,18.00
2019-02-21T09:58:26.081Z,9.40
2019-02-21T10:00:05.826Z,21.60
2019-02-21T10:01:42.447Z,19.20
2019-02-21T10:03:18.346Z,20.20
2019-02-21T10:05:04.962Z,22.40
2019-02-21T10:06:42.547Z,20.80
2019-02-21T10:08:35.219Z,16.60
2019-02-21T10:10:03.134Z,13.80
2019-02-21T10:11:40.901Z,18.40
2019-02-21T10:13:20.296Z,12.20
2019-02-21T10:14:56.311Z,20.80
2019-02-21T10:16:34.607Z,19.40
2019-02-21T10:18:31.818Z,22.60
2019-02-21T10:20:15.011Z,19.80
2019-02-21T10:21:54.086Z,16.40
2019-02-21T10:23:32.224Z,11.80
2019-02-21T10:25:11.816Z,19.60
2019-02-21T10:26:48.838Z,22.00
2019-02-21T10:28:27.963Z,21.00
2019-02-21T10:30:13.735Z,18.00
2019-02-21T10:31:54.810Z,19.00
2019-02-21T10:33:33.317Z,21.00
2019-02-21T10:35:14.730Z,22.00
2019-02-21T10:36:51.542Z,18.20
2019-02-21T10:38:36.982Z,21.80
2019-02-21T10:40:16.991Z,24.00
2019-02-21T10:41:57.695Z,19.00
2019-02-21T10:43:41.446Z,27.00
2019-02-21T10:45:18.400Z,21.60
2019-02-21T10:46:59.647Z,25.20
2019-02-21T10:48:37.972Z,20.20
2019-02-21T10:50:21.528Z,21.80
2019-02-21T10:51:59.237Z,16.80
2019-02-21T10:53:48.492Z,24.40
2019-02-21T10:55:27.629Z,30.40
2019-02-21T10:57:04.275Z,24.40
2019-02-21T10:58:40.064Z,25.00
2019-02-21T11:00:21.880Z,27.00
2019-02-21T11:01:57.996Z,27.00
2019-02-21T11:03:38.870Z,21.60
2019-02-21T11:05:14.451Z,18.60
2019-02-21T11:06:50.486Z,27.60
2019-02-21T11:08:29.402Z,24.40
2019-02-21T11:10:12.840Z,20.00
2019-02-21T11:11:50.798Z,21.80
2019-02-21T11:13:30.725Z,20.20
2019-02-21T11:15:28.191Z,16.80
2019-02-21T11:17:11.156Z,23.80
2019-02-21T11:18:56.140Z,25.00
2019-02-21T11:20:35.265Z,21.40
2019-02-21T11:22:14.233Z,21.00
2019-02-21T11:23:56.570Z,29.20
2019-02-21T11:25:32.702Z,21.60
2019-02-21T11:27:09.462Z,26.40
2019-02-21T11:28:50.746Z,30.00
2019-02-21T11:30:32.205Z,28.40
2019-02-21T11:32:13.354Z,27.40
2019-02-21T11:33:50.885Z,25.00
2019-02-21T11:35:27.542Z,20.00
2019-02-21T11:37:02.706Z,15.60
2019-02-21T11:38:40.625Z,29.60
2019-02-21T11:40:18.105Z,30.20
2019-02-21T11:41:53.666Z,19.00
2019-02-21T11:43:28.983Z,26.40
2019-02-21T11:45:05.708Z,31.20
2019-02-21T11:46:44.771Z,18.60
2019-02-21T11:48:20.444Z,30.80
2019-02-21T11:49:57.120Z,26.60
2019-02-21T11:51:32.843Z,27.60
2019-02-21T11:53:12.925Z,19.40
2019-02-21T11:54:51.371Z,24.60
2019-02-21T11:56:34.807Z,22.60
2019-02-21T11:58:10.400Z,29.20
2019-02-21T11:59:46.590Z,23.40
2019-02-21T12:01:24.988Z,21.80
2019-02-21T12:03:06.139Z,30.00
2019-02-21T12:04:43.321Z,27.80
2019-02-21T12:06:23.990Z,30.80
2019-02-21T12:08:05.721Z,24.80
2019-02-21T12:09:47.578Z,32.60
2019-02-21T12:11:24.623Z,28.40
2019-02-21T12:13:00.678Z,30.00
2019-02-21T12:14:36.044Z,33.00
2019-02-21T12:16:15.215Z,20.60
2019-02-21T12:18:09.652Z,29.00
2019-02-21T12:19:53.691Z,28.80
2019-02-21T12:21:33.005Z,31.40
2019-02-21T12:23:22.266Z,31.20
2019-02-21T12:24:57.487Z,27.40
2019-02-21T12:26:35.245Z,19.40
2019-02-21T12:28:23.066Z,28.40
2019-02-21T12:29:57.907Z,26.80
2019-02-21T12:31:33.186Z,23.20
2019-02-21T12:33:09.095Z,27.60
2019-02-21T12:34:52.706Z,31.80
2019-02-21T12:36:34.534Z,26.60
2019-02-21T12:38:12.195Z,30.40
2019-02-21T12:39:55.184Z,23.00
2019-02-21T12:41:37.183Z,35.80
2019-02-21T12:43:14.136Z,33.00
2019-02-21T12:44:55.737Z,30.80
2019-02-21T12:46:36.799Z,24.20
2019-02-21T12:48:16.880Z,29.60
2019-02-21T12:49:56.441Z,33.40
2019-02-21T12:51:32.227Z,30.00
2019-02-21T12:53:11.115Z,38.20
2019-02-21T12:54:46.896Z,25.20
2019-02-21T12:56:23.069Z,29.20
2019-02-21T12:58:00.065Z,39.00
2019-02-21T12:59:36.806Z,25.80
2019-02-21T13:01:13.292Z,35.60
2019-02-21T13:03:01.209Z,30.20
2019-02-21T13:04:42.834Z,24.40
2019-02-21T13:06:21.644Z,36.60
2019-02-21T13:07:57.264Z,40.00
2019-02-21T13:09:40.096Z,22.40
2019-02-21T13:11:19.794Z,31.20
2019-02-21T13:12:58.907Z,33.80
2019-02-21T13:14:34.206Z,20.20
2019-02-21T13:16:10.852Z,31.00
2019-02-21T13:17:54.559Z,33.80
2019-02-21T13:19:32.530Z,31.00
2019-02-21T13:21:11.130Z,30.20
2019-02-21T13:22:49.908Z,30.40
2019-02-21T13:24:28.808Z,30.20
2019-02-21T13:26:08.266Z,35.80
2019-02-21T13:27:49.724Z,29.20
2019-02-21T13:29:28.116Z,27.60
2019-02-21T13:31:12.824Z,27.60
2019-02-21T13:35:30.112Z,20.80
2019-02-21T13:37:09.537Z,27.60
2019-02-21T13:38:57.106Z,27.60
2019-02-21T13:40:53.256Z,33.00
2019-02-21T13:42:33.743Z,24.00
2019-02-21T13:44:17.665Z,27.60
2019-02-21T13:45:58.434Z,23.60
2019-02-21T13:47:39.242Z,21.80
2019-02-21T13:49:20.320Z,33.20
2019-02-21T13:51:09.947Z,28.80
2019-02-21T13:52:51.283Z,30.40
2019-02-21T13:54:28.288Z,33.00
2019-02-21T13:56:04.804Z,27.20
2019-02-21T13:57:53.940Z,31.40
2019-02-21T13:59:34.794Z,30.00
2019-02-21T14:01:14.389Z,23.20
2019-02-21T14:02:54.072Z,34.40
2019-02-21T14:04:31.129Z,23.80
2019-02-21T14:06:06.552Z,30.00
2019-02-21T14:07:41.642Z,28.80
2019-02-21T14:09:24.388Z,22.40
2019-02-21T14:11:00.051Z,31.00
2019-02-21T14:12:38.190Z,32.20
2019-02-21T14:14:20.510Z,22.80
2019-02-21T14:16:02.681Z,25.00
2019-02-21T14:17:46.672Z,25.60
2019-02-21T14:19:23.620Z,20.60
2019-02-21T14:21:01.298Z,26.20
2019-02-21T14:22:47.095Z,27.60
2019-02-21T14:24:36.036Z,27.20
2019-02-21T14:26:12.708Z,24.60
2019-02-21T14:27:58.709Z,30.00
2019-02-21T14:29:57.690Z,22.40
2019-02-21T14:31:34.372Z,30.00
2019-02-21T14:33:22.410Z,20.60
2019-02-21T14:35:02.618Z,27.00
2019-02-21T14:36:43.744Z,20.20
2019-02-21T14:38:44.980Z,21.20
2019-02-21T14:40:38.533Z,25.60
2019-02-21T14:42:32.670Z,18.40
2019-02-21T14:44:11.026Z,19.60
2019-02-21T14:45:55.951Z,20.20
2019-02-21T14:47:38.428Z,25.00
2019-02-21T14:49:20.454Z,22.80
2019-02-21T14:51:10.351Z,18.00
2019-02-21T14:52:59.866Z,12.40
2019-02-21T14:54:43.658Z,15.80
2019-02-21T14:56:25.788Z,22.20
2019-02-21T14:58:03.280Z,18.80
2019-02-21T14:59:48.344Z,21.80
2019-02-21T15:01:53.481Z,21.40
2019-02-21T15:03:50.253Z,18.60
2019-02-21T15:05:36.423Z,19.00
2019-02-21T15:07:32.595Z,19.00
2019-02-21T15:09:13.288Z,19.00
2019-02-21T15:11:00.839Z,18.60
2019-02-21T15:12:47.046Z,17.60
2019-02-21T15:14:37.216Z,18.20
2019-02-21T15:16:18.114Z,16.60
2019-02-21T15:18:13.213Z,13.20
2019-02-21T15:20:13.736Z,18.40
2019-02-21T15:21:58.735Z,15.00
2019-02-21T15:23:43.481Z,14.00
2019-02-21T15:25:21.832Z,18.60
2019-02-21T15:27:08.549Z,21.60
2019-02-21T15:28:42.371Z,22.40
2019-02-21T15:30:24.563Z,17.20
2019-02-21T15:32:11.196Z,24.80
2019-02-21T15:33:49.385Z,18.80
2019-02-21T15:35:31.649Z,16.00
2019-02-21T15:37:30.440Z,20.80
2019-02-21T15:39:01.804Z,18.00
2019-02-21T15:40:40.256Z,18.40
2019-02-21T15:42:22.204Z,17.80
2019-02-21T15:44:30.305Z,19.20
2019-02-21T15:46:10.885Z,16.80
2019-02-21T15:47:53.452Z,10.80
2019-02-21T15:49:41.228Z,15.60
2019-02-21T15:51:22.711Z,18.00
2019-02-21T15:53:07.343Z,17.20
2019-02-21T15:54:53.559Z,12.20
2019-02-21T15:56:29.266Z,12.40
2019-02-21T15:58:08.715Z,15.00
2019-02-21T15:59:52.512Z,15.00
2019-02-21T16:01:47.047Z,12.00
2019-02-21T16:03:16.603Z,13.40
2019-02-21T16:05:21.563Z,1.80
2019-02-21T16:07:20.217Z,12.40
2019-02-21T16:09:15.957Z,15.00
2019-02-21T16:11:10.794Z,12.80
2019-02-21T16:12:51.188Z,18.20
2019-02-21T16:14:47.102Z,9.40
2019-02-21T16:16:32.091Z,15.80
2019-02-21T16:18:13.846Z,14.20
2019-02-21T16:20:22.448Z,17.40
2019-02-21T16:22:02.783Z,14.80
2019-02-21T16:23:51.273Z,18.00
2019-02-21T16:25:30.589Z,16.40
2019-02-21T16:27:11.034Z,17.00
2019-02-21T16:29:02.278Z,13.80
2019-02-21T16:31:04.063Z,17.00
2019-02-21T16:32:41.671Z,15.60
2019-02-21T16:34:20.426Z,15.60
2019-02-21T16:36:09.639Z,18.00
2019-02-21T16:37:53.774Z,15.40
2019-02-21T16:39:54.983Z,17.00
2019-02-21T16:41:53.064Z,11.20
2019-02-21T16:43:40.994Z,18.20
2019-02-21T16:45:25.659Z,17.20
2019-02-21T16:47:05.797Z,17.20
2019-02-21T16:49:29.643Z,10.20
2019-02-21T16:51:14.760Z,13.40
2019-02-21T16:53:01.353Z,14.40
2019-02-21T16:54:37.514Z,13.40
2019-02-21T16:56:21.581Z,18.20
2019-02-21T16:58:01.561Z,24.60
2019-02-21T16:59:43.212Z,19.00
2019-02-21T17:01:18.751Z,12.40
2019-02-21T17:02:55.084Z,16.60
2019-02-21T17:05:09.281Z,18.80
2019-02-21T17:06:52.868Z,15.40
2019-02-21T17:08:34.558Z,16.00
2019-02-21T17:10:17.849Z,15.60
2019-02-21T17:11:55.199Z,19.20
2019-02-21T17:13:34.232Z,19.00
2019-02-21T17:15:13.216Z,21.60
2019-02-21T17:16:58.867Z,17.60
2019-02-21T17:18:38.853Z,20.60
2019-02-21T17:20:19.659Z,15.60
2019-02-21T17:22:04.171Z,16.40
2019-02-21T17:23:46.334Z,16.40
2019-02-21T17:25:30.403Z,18.80
2019-02-21T17:27:10.584Z,21.60
2019-02-21T17:28:48.271Z,13.80
2019-02-21T17:30:25.150Z,20.80
2019-02-21T17:32:04.932Z,18.80
2019-02-21T17:33:46.808Z,22.00
2019-02-21T17:35:22.427Z,21.40
2019-02-21T17:37:00.501Z,18.20
2019-02-21T17:38:38.812Z,21.80
2019-02-21T17:40:18.691Z,21.80
2019-02-21T17:42:03.326Z,15.00
2019-02-21T17:43:53.353Z,21.20
2019-02-21T17:45:42.219Z,23.00
2019-02-21T17:47:21.878Z,33.20
2019-02-21T17:49:15.614Z,29.60
2019-02-21T17:51:00.246Z,28.00
2019-02-21T17:52:40.388Z,27.60
2019-02-21T17:54:19.356Z,29.20
2019-02-21T17:56:01.217Z,27.40
2019-02-21T17:57:44.431Z,26.80
2019-02-21T17:59:24.995Z,18.60
2019-02-21T18:01:23.312Z,25.00
2019-02-21T18:03:08.762Z,20.40
2019-02-21T18:04:56.290Z,20.20
2019-02-21T18:06:34.519Z,23.20
2019-02-21T18:08:12.010Z,22.20
2019-02-21T18:09:48.641Z,23.80
2019-02-21T18:11:28.238Z,24.40
2019-02-21T18:13:15.983Z,27.40
2019-02-21T18:15:07.490Z,24.80
2019-02-21T18:16:44.799Z,18.80
2019-02-21T18:18:25.083Z,24.40
2019-02-21T18:20:00.490Z,27.00
2019-02-21T18:21:39.267Z,25.20
2019-02-21T18:23:16.715Z,18.80
2019-02-21T18:24:53.314Z,19.00
2019-02-21T18:26:50.272Z,23.60
2019-02-21T18:28:32.236Z,17.40
2019-02-21T18:30:19.984Z,23.60
2019-02-21T18:31:58.406Z,20.60
2019-02-21T18:33:36.429Z,24.80
2019-02-21T18:35:12.685Z,19.40
2019-02-21T18:36:52.617Z,23.60
2019-02-21T18:38:57.063Z,21.00
2019-02-21T18:40:45.726Z,22.80
2019-02-21T18:42:31.009Z,22.40
2019-02-21T18:44:21.186Z,21.80
2019-02-21T18:46:18.608Z,22.20
2019-02-21T18:47:57.337Z,23.20
2019-02-21T18:49:49.307Z,22.20
2019-02-21T18:51:25.897Z,18.00
2019-02-21T18:53:02.067Z,12.80
2019-02-21T18:54:42.554Z,24.00
2019-02-21T18:56:17.791Z,22.40
2019-02-21T18:57:55.335Z,24.40
2019-02-21T18:59:42.543Z,21.40
2019-02-21T19:01:27.807Z,22.60
2019-02-21T19:03:07.290Z,24.20
2019-02-21T19:04:50.558Z,22.00
2019-02-21T19:06:27.711Z,19.00
2019-02-21T19:08:05.505Z,24.60
2019-02-21T19:09:49.342Z,24.40
2019-02-21T19:11:32.189Z,24.00
2019-02-21T19:13:08.014Z,26.20
2019-02-21T19:14:48.843Z,18.80
2019-02-21T19:16:27.500Z,23.80
2019-02-21T19:18:05.459Z,26.00
2019-02-21T19:19:48.652Z,21.00
2019-02-21T19:21:26.740Z,25.20
2019-02-21T19:23:04.585Z,20.60
2019-02-21T19:24:43.510Z,15.40
2019-02-21T19:26:26.330Z,24.60
2019-02-21T19:28:20.776Z,25.40
2019-02-21T19:30:05.161Z,27.00
2019-02-21T19:31:58.036Z,27.60
2019-02-21T19:33:36.034Z,22.00
2019-02-21T19:35:13.824Z,25.60
2019-02-21T19:37:05.044Z,24.60
2019-02-21T19:39:05.361Z,26.60
2019-02-21T19:40:42.203Z,26.60
2019-02-21T19:42:18.307Z,27.20
2019-02-21T19:44:08.786Z,25.40
2019-02-21T19:45:49.697Z,15.60
2019-02-21T19:47:28.311Z,20.00
2019-02-21T19:49:20.972Z,26.80
2019-02-21T19:51:05.498Z,20.60
2019-02-21T19:53:03.151Z,27.00
2019-02-21T19:54:39.143Z,29.60
2019-02-21T19:56:38.375Z,23.80
2019-02-21T19:58:17.149Z,28.20
2019-02-21T19:59:54.877Z,27.60
2019-02-21T20:01:37.305Z,25.60
2019-02-21T20:03:16.590Z,30.80
2019-02-21T20:04:52.758Z,25.20
2019-02-21T20:06:38.499Z,29.60
2019-02-21T20:08:26.702Z,28.60
2019-02-21T20:10:03.632Z,31.00
2019-02-21T20:11:41.661Z,27.80
2019-02-21T20:13:18.483Z,29.00
2019-02-21T20:16:57.381Z,30.40
2019-02-21T20:18:45.962Z,21.80
2019-02-21T20:20:29.830Z,30.00
2019-02-21T20:22:09.385Z,22.60
2019-02-21T20:23:46.229Z,23.80
2019-02-21T20:25:31.773Z,30.40
2019-02-21T20:27:14.817Z,23.40
2019-02-21T20:28:55.248Z,25.20
2019-02-21T20:30:43.608Z,26.80
2019-02-21T20:32:28.819Z,27.20
2019-02-21T20:34:12.790Z,30.20
2019-02-21T20:35:50.417Z,26.60
2019-02-21T20:37:42.186Z,22.00
2019-02-21T20:39:27.649Z,26.60
2019-02-21T20:41:36.454Z,30.80
2019-02-21T20:43:20.818Z,27.20
2019-02-21T20:45:03.224Z,33.00
2019-02-21T20:46:41.721Z,30.60
2019-02-21T20:48:30.602Z,24.60
2019-02-21T20:50:14.663Z,27.20
2019-02-21T20:51:50.729Z,21.60
2019-02-21T20:53:28.846Z,30.20
2019-02-21T20:55:09.871Z,30.00
2019-02-21T20:56:53.731Z,30.40
2019-02-21T20:58:44.647Z,27.60
2019-02-21T21:00:24.558Z,25.60
2019-02-21T21:02:00.305Z,26.40
2019-02-21T21:03:42.080Z,30.00
2019-02-21T21:05:22.511Z,27.40
2019-02-21T21:07:31.649Z,30.20
2019-02-21T21:09:19.099Z,30.00
2019-02-21T21:11:04.061Z,26.20
2019-02-21T21:12:41.536Z,30.20
2019-02-21T21:14:27.998Z,21.60
2019-02-21T21:16:09.965Z,33.60
2019-02-21T21:17:51.906Z,32.20
2019-02-21T21:19:38.562Z,25.20
2019-02-21T21:21:18.578Z,33.40
2019-02-21T21:23:01.169Z,32.20
2019-02-21T21:24:39.238Z,30.40
2019-02-21T21:26:15.205Z,29.20
2019-02-21T21:27:58.328Z,33.20
2019-02-21T21:29:36.117Z,22.60
2019-02-21T21:31:15.888Z,33.60
2019-02-21T21:32:54.623Z,25.80
2019-02-21T21:34:31.245Z,34.00
2019-02-21T21:36:08.880Z,30.40
2019-02-21T21:37:48.432Z,36.00
2019-02-21T21:39:24.371Z,33.40
2019-02-21T21:41:00.218Z,32.60
2019-02-21T21:42:40.559Z,17.60
2019-02-21T21:44:16.092Z,35.60
2019-02-21T21:45:51.934Z,35.20
2019-02-21T21:47:38.411Z,34.40
2019-02-21T21:49:20.104Z,31.40
2019-02-21T21:50:58.251Z,36.00
2019-02-21T21:52:42.935Z,33.00
2019-02-21T21:54:22.403Z,34.00
2019-02-21T21:56:05.176Z,31.00
2019-02-21T21:57:44.146Z,24.60
2019-02-21T21:59:26.582Z,34.40